createdAt,value
2022-09-23T00:00:07.209Z,0.57
2022-09-23T00:00:24.677Z,0.63
2022-09-23T00:00:41.555Z,0.55
2022-09-23T00:00:59.372Z,0.50
2022-09-23T00:01:15.973Z,0.43
2022-09-23T00:01:33.877Z,0.60
2022-09-23T00:01:50.434Z,0.66
2022-09-23T00:02:07.258Z,0.52
2022-09-23T00:02:24.142Z,0.52
2022-09-23T00:02:40.825Z,0.57
2022-09-23T00:02:59.980Z,0.50
2022-09-23T00:03:16.552Z,0.40
2022-09-23T00:03:34.127Z,0.50
2022-09-23T00:03:50.617Z,0.45
2022-09-23T00:04:07.193Z,0.38
2022-09-23T00:04:23.781Z,0.50
2022-09-23T00:04:42.196Z,0.43
2022-09-23T00:04:59.069Z,0.43
2022-09-23T00:05:15.683Z,0.47
2022-09-23T00:05:32.765Z,0.45
2022-09-23T00:05:58.561Z,0.60
2022-09-23T00:06:16.603Z,0.55
2022-09-23T00:06:34.117Z,0.50
2022-09-23T00:06:50.688Z,0.60
2022-09-23T00:07:07.213Z,0.60
2022-09-23T00:07:23.693Z,0.47
2022-09-23T00:07:40.462Z,0.50
2022-09-23T00:07:57.059Z,0.60
2022-09-23T00:08:13.543Z,0.60
2022-09-23T00:08:31.543Z,0.60
2022-09-23T00:08:49.451Z,0.42
2022-09-23T00:09:06.016Z,0.52
2022-09-23T00:09:22.622Z,0.50
2022-09-23T00:09:40.096Z,0.40
2022-09-23T00:09:56.615Z,0.60
2022-09-23T00:10:13.205Z,0.60
2022-09-23T00:10:30.943Z,0.47
2022-09-23T00:10:47.588Z,0.45
2022-09-23T00:11:04.848Z,0.50
2022-09-23T00:11:22.625Z,0.40
2022-09-23T00:11:39.154Z,0.40
2022-09-23T00:11:56.653Z,0.52
2022-09-23T00:12:13.151Z,0.70
2022-09-23T00:12:29.661Z,0.57
2022-09-23T00:12:46.149Z,0.40
2022-09-23T00:13:02.826Z,0.32
2022-09-23T00:13:20.695Z,0.40
2022-09-23T00:13:38.735Z,0.50
2022-09-23T00:13:56.163Z,0.45
2022-09-23T00:14:13.023Z,0.30
2022-09-23T00:14:29.531Z,0.30
2022-09-23T00:14:46.026Z,0.22
2022-09-23T00:15:02.699Z,0.22
2022-09-23T00:15:20.135Z,0.50
2022-09-23T00:15:39.626Z,0.50
2022-09-23T00:15:56.100Z,0.50
2022-09-23T00:16:13.838Z,0.50
2022-09-23T00:16:34.043Z,0.50
2022-09-23T00:16:50.994Z,0.40
2022-09-23T00:17:07.639Z,0.40
2022-09-23T00:17:24.200Z,0.30
2022-09-23T00:17:40.919Z,0.30
2022-09-23T00:17:58.945Z,0.30
2022-09-23T00:18:15.430Z,0.50
2022-09-23T00:18:32.135Z,0.40
2022-09-23T00:18:50.224Z,0.40
2022-09-23T00:19:07.346Z,0.43
2022-09-23T00:19:24.816Z,0.40
2022-09-23T00:19:41.408Z,0.30
2022-09-23T00:19:57.899Z,0.50
2022-09-23T00:20:14.417Z,0.50
2022-09-23T00:20:32.878Z,0.40
2022-09-23T00:20:49.407Z,0.35
2022-09-23T00:21:06.867Z,0.43
2022-09-23T00:21:25.206Z,0.40
2022-09-23T00:21:42.556Z,0.60
2022-09-23T00:21:59.014Z,0.50
2022-09-23T00:22:15.726Z,0.40
2022-09-23T00:22:33.116Z,0.40
2022-09-23T00:22:49.628Z,0.63
2022-09-23T00:23:07.116Z,0.70
2022-09-23T00:23:24.097Z,0.40
2022-09-23T00:23:41.323Z,0.50
2022-09-23T00:23:57.835Z,0.50
2022-09-23T00:24:15.747Z,0.50
2022-09-23T00:24:33.299Z,0.50
2022-09-23T00:24:49.933Z,0.43
2022-09-23T00:25:08.258Z,0.40
2022-09-23T00:25:25.085Z,0.50
2022-09-23T00:25:41.648Z,0.60
2022-09-23T00:25:58.472Z,0.47
2022-09-23T00:26:17.342Z,0.30
2022-09-23T00:26:33.902Z,0.50
2022-09-23T00:26:50.957Z,0.40
2022-09-23T00:27:07.477Z,0.32
2022-09-23T00:27:24.055Z,0.40
2022-09-23T00:27:41.938Z,0.20
2022-09-23T00:27:58.977Z,0.20
2022-09-23T00:28:15.474Z,0.30
2022-09-23T00:28:33.388Z,0.38
2022-09-23T00:28:50.283Z,0.32
2022-09-23T00:29:08.145Z,0.40
2022-09-23T00:29:24.845Z,0.50
2022-09-23T00:29:41.362Z,0.47
2022-09-23T00:29:57.868Z,0.50
2022-09-23T00:30:14.394Z,0.40
2022-09-23T00:30:31.303Z,0.50
2022-09-23T00:30:47.913Z,0.50
2022-09-23T00:31:05.804Z,0.32
2022-09-23T00:31:23.581Z,0.35
2022-09-23T00:31:40.168Z,0.47
2022-09-23T00:31:56.739Z,0.43
2022-09-23T00:32:13.354Z,0.55
2022-09-23T00:32:30.857Z,0.50
2022-09-23T00:32:47.346Z,0.40
2022-09-23T00:33:03.949Z,0.50
2022-09-23T00:33:20.482Z,0.52
2022-09-23T00:33:37.274Z,0.50
2022-09-23T00:33:54.152Z,0.40
2022-09-23T00:34:12.373Z,0.35
2022-09-23T00:34:29.654Z,0.40
2022-09-23T00:34:47.842Z,0.50
2022-09-23T00:35:04.685Z,0.55
2022-09-23T00:35:21.213Z,0.60
2022-09-23T00:35:39.164Z,0.22
2022-09-23T00:35:58.306Z,0.20
2022-09-23T00:36:15.895Z,0.38
2022-09-23T00:36:32.432Z,0.30
2022-09-23T00:36:48.922Z,0.28
2022-09-23T00:37:06.585Z,0.40
2022-09-23T00:37:23.112Z,0.40
2022-09-23T00:37:39.644Z,0.57
2022-09-23T00:37:56.211Z,0.43
2022-09-23T00:38:14.196Z,0.30
2022-09-23T00:38:30.842Z,0.32
2022-09-23T00:38:48.312Z,0.40
2022-09-23T00:39:04.843Z,0.40
2022-09-23T00:39:21.382Z,0.30
2022-09-23T00:39:38.006Z,0.30
2022-09-23T00:39:55.456Z,0.40
2022-09-23T00:40:13.188Z,0.30
2022-09-23T00:40:30.796Z,0.20
2022-09-23T00:40:47.422Z,0.20
2022-09-23T00:41:04.042Z,0.40
2022-09-23T00:41:21.302Z,0.40
2022-09-23T00:41:37.905Z,0.40
2022-09-23T00:41:54.425Z,0.45
2022-09-23T00:42:13.747Z,0.22
2022-09-23T00:42:30.330Z,0.30
2022-09-23T00:42:47.882Z,0.32
2022-09-23T00:43:05.868Z,0.20
2022-09-23T00:43:37.517Z,0.30
2022-09-23T00:43:56.609Z,0.40
2022-09-23T00:44:31.514Z,0.30
2022-09-23T00:44:49.245Z,0.30
2022-09-23T00:45:11.060Z,0.40
2022-09-23T00:45:29.020Z,0.30
2022-09-23T00:45:46.783Z,0.28
2022-09-23T00:46:03.694Z,0.30
2022-09-23T00:46:21.764Z,0.30
2022-09-23T00:46:40.769Z,0.40
2022-09-23T00:46:58.280Z,0.40
2022-09-23T00:47:17.680Z,0.30
2022-09-23T00:47:35.250Z,0.20
2022-09-23T00:47:53.386Z,0.30
2022-09-23T00:48:12.720Z,0.32
2022-09-23T00:48:30.263Z,0.40
2022-09-23T00:48:48.386Z,0.40
2022-09-23T00:49:06.566Z,0.40
2022-09-23T00:49:25.036Z,0.30
2022-09-23T00:49:41.735Z,0.30
2022-09-23T00:50:03.303Z,0.30
2022-09-23T00:50:22.509Z,0.40
2022-09-23T00:50:41.325Z,0.25
2022-09-23T00:50:58.034Z,0.20
2022-09-23T00:51:19.281Z,0.30
2022-09-23T00:51:38.902Z,0.40
2022-09-23T00:51:58.775Z,0.50
2022-09-23T00:52:17.901Z,0.50
2022-09-23T00:52:34.983Z,0.70
2022-09-23T00:52:52.503Z,0.90
2022-09-23T00:53:12.134Z,0.50
2022-09-23T00:53:28.806Z,0.28
2022-09-23T00:53:45.969Z,0.30
2022-09-23T00:54:02.848Z,0.20
2022-09-23T00:54:19.865Z,0.30
2022-09-23T00:54:36.373Z,0.30
2022-09-23T00:54:55.985Z,0.20
2022-09-23T00:55:15.782Z,0.32
2022-09-23T00:55:33.545Z,0.40
2022-09-23T00:55:52.615Z,0.40
2022-09-23T00:56:10.029Z,0.43
2022-09-23T00:56:27.643Z,0.40
2022-09-23T00:56:44.245Z,0.20
2022-09-23T00:57:01.249Z,0.40
2022-09-23T00:57:18.239Z,0.45
2022-09-23T00:57:35.069Z,0.60
2022-09-23T00:57:52.197Z,0.38
2022-09-23T00:58:11.930Z,0.30
2022-09-23T00:58:31.163Z,0.40
2022-09-23T00:58:49.477Z,0.38
2022-09-23T00:59:07.107Z,0.30
2022-09-23T00:59:26.108Z,0.40
2022-09-23T00:59:43.368Z,0.50
2022-09-23T00:59:59.973Z,0.50
2022-09-23T01:00:16.486Z,0.40
2022-09-23T01:00:33.689Z,0.22
2022-09-23T01:00:50.187Z,0.30
2022-09-23T01:01:07.781Z,0.40
2022-09-23T01:01:24.976Z,0.40
2022-09-23T01:01:42.649Z,0.45
2022-09-23T01:02:00.350Z,0.40
2022-09-23T01:02:17.342Z,0.57
2022-09-23T01:02:35.164Z,0.40
2022-09-23T01:02:52.132Z,0.20
2022-09-23T01:03:09.487Z,0.30
2022-09-23T01:03:26.042Z,0.30
2022-09-23T01:03:44.416Z,0.30
2022-09-23T01:04:02.019Z,0.38
2022-09-23T01:04:19.190Z,0.32
2022-09-23T01:04:35.795Z,0.30
2022-09-23T01:04:52.380Z,0.30
2022-09-23T01:05:09.390Z,0.20
2022-09-23T01:05:26.443Z,0.22
2022-09-23T01:05:42.999Z,0.25
2022-09-23T01:06:00.610Z,0.28
2022-09-23T01:06:17.308Z,0.50
2022-09-23T01:06:33.800Z,0.40
2022-09-23T01:06:50.268Z,0.20
2022-09-23T01:07:06.793Z,0.30
2022-09-23T01:07:25.243Z,0.30
2022-09-23T01:07:41.733Z,0.30
2022-09-23T01:07:59.153Z,0.30
2022-09-23T01:08:15.855Z,0.22
2022-09-23T01:08:32.428Z,0.30
2022-09-23T01:08:49.223Z,0.30
2022-09-23T01:09:06.863Z,0.30
2022-09-23T01:09:23.927Z,0.30
2022-09-23T01:09:40.626Z,0.22
2022-09-23T01:09:57.765Z,0.32
2022-09-23T01:10:14.876Z,0.38
2022-09-23T01:10:34.548Z,0.22
2022-09-23T01:10:56.331Z,0.32
2022-09-23T01:11:18.862Z,0.30
2022-09-23T01:11:42.686Z,0.30
2022-09-23T01:12:04.719Z,0.30
2022-09-23T01:12:36.270Z,0.38
2022-09-23T01:13:03.240Z,0.20
2022-09-23T01:13:23.406Z,0.20
2022-09-23T01:13:43.890Z,0.30
2022-09-23T01:14:07.452Z,0.38
2022-09-23T01:14:32.822Z,0.40
2022-09-23T01:14:54.289Z,0.40
2022-09-23T01:15:14.525Z,0.43
2022-09-23T01:15:36.264Z,0.40
2022-09-23T01:15:54.907Z,0.20
2022-09-23T01:16:14.982Z,0.20
2022-09-23T01:16:34.081Z,0.30
2022-09-23T01:16:53.940Z,0.28
2022-09-23T01:17:17.202Z,0.40
2022-09-23T01:17:39.562Z,0.25
2022-09-23T01:18:00.300Z,0.30
2022-09-23T01:18:22.855Z,0.30
2022-09-23T01:18:43.407Z,0.20
2022-09-23T01:19:05.799Z,0.38
2022-09-23T01:19:34.322Z,0.50
2022-09-23T01:20:00.163Z,0.52
2022-09-23T01:20:34.469Z,0.40
2022-09-23T01:21:16.583Z,0.20
2022-09-23T01:21:39.043Z,0.40
2022-09-23T01:21:58.511Z,0.45
2022-09-23T01:22:19.458Z,0.52
2022-09-23T01:22:40.033Z,0.40
2022-09-23T01:23:01.761Z,0.25
2022-09-23T01:23:25.593Z,0.30
2022-09-23T01:24:02.860Z,0.35
2022-09-23T01:24:37.797Z,0.35
2022-09-23T01:25:03.658Z,0.40
2022-09-23T01:25:25.268Z,0.28
2022-09-23T01:25:52.371Z,0.30
2022-09-23T01:26:17.731Z,0.30
2022-09-23T01:26:43.450Z,0.20
2022-09-23T01:27:03.782Z,0.40
2022-09-23T01:27:38.049Z,0.28
2022-09-23T01:28:10.267Z,0.30
2022-09-23T01:28:33.981Z,0.30
2022-09-23T01:29:02.242Z,0.30
2022-09-23T01:29:30.964Z,0.30
2022-09-23T01:30:14.153Z,0.28
2022-09-23T01:30:40.336Z,0.50
2022-09-23T01:30:59.742Z,0.35
2022-09-23T01:31:19.238Z,0.22
2022-09-23T01:31:39.080Z,0.30
2022-09-23T01:31:59.512Z,0.50
2022-09-23T01:32:18.046Z,0.40
2022-09-23T01:32:42.514Z,0.30
2022-09-23T01:33:09.149Z,0.30
2022-09-23T01:33:33.228Z,0.30
2022-09-23T01:33:53.159Z,0.40
2022-09-23T01:34:11.126Z,0.45
2022-09-23T01:34:33.588Z,0.30
2022-09-23T01:34:55.356Z,0.25
2022-09-23T01:35:19.181Z,0.50
2022-09-23T01:35:42.956Z,0.60
2022-09-23T01:36:03.322Z,0.30
2022-09-23T01:36:24.479Z,0.30
2022-09-23T01:36:43.019Z,0.30
2022-09-23T01:37:06.069Z,0.40
2022-09-23T01:37:25.527Z,0.30
2022-09-23T01:37:46.672Z,0.20
2022-09-23T01:38:09.625Z,0.40
2022-09-23T01:38:31.882Z,0.43
2022-09-23T01:38:53.645Z,0.40
2022-09-23T01:39:12.845Z,0.32
2022-09-23T01:39:35.130Z,0.20
2022-09-23T01:39:54.654Z,0.32
2022-09-23T01:40:15.418Z,0.30
2022-09-23T01:40:37.865Z,0.20
2022-09-23T01:40:59.435Z,0.30
2022-09-23T01:41:29.979Z,0.20
2022-09-23T01:41:51.727Z,0.40
2022-09-23T01:42:16.907Z,0.35
2022-09-23T01:42:35.038Z,0.47
2022-09-23T01:42:53.850Z,0.35
2022-09-23T01:43:13.430Z,0.32
2022-09-23T01:43:33.858Z,0.25
2022-09-23T01:43:56.893Z,0.47
2022-09-23T01:44:18.399Z,0.47
2022-09-23T01:44:39.134Z,0.30
2022-09-23T01:44:57.012Z,0.40
2022-09-23T01:45:16.131Z,0.50
2022-09-23T01:45:35.575Z,0.30
2022-09-23T01:45:56.752Z,0.30
2022-09-23T01:46:16.629Z,0.30
2022-09-23T01:46:35.841Z,0.32
2022-09-23T01:46:53.952Z,0.30
2022-09-23T01:47:14.929Z,0.40
2022-09-23T01:47:33.359Z,0.40
2022-09-23T01:47:52.098Z,0.47
2022-09-23T01:48:13.848Z,0.30
2022-09-23T01:48:34.336Z,0.10
2022-09-23T01:48:54.168Z,0.20
2022-09-23T01:49:14.678Z,0.30
2022-09-23T01:49:34.415Z,0.40
2022-09-23T01:49:52.479Z,0.30
2022-09-23T01:50:26.818Z,0.50
2022-09-23T01:50:57.498Z,0.40
2022-09-23T01:51:17.364Z,0.20
2022-09-23T01:51:35.718Z,0.30
2022-09-23T01:51:57.065Z,0.30
2022-09-23T01:52:16.561Z,0.50
2022-09-23T01:52:37.116Z,0.52
2022-09-23T01:52:55.213Z,0.40
2022-09-23T01:53:13.959Z,0.40
2022-09-23T01:53:35.587Z,0.25
2022-09-23T01:53:55.133Z,0.20
2022-09-23T01:54:15.804Z,0.30
2022-09-23T01:54:38.490Z,0.20
2022-09-23T01:54:57.303Z,0.22
2022-09-23T01:55:17.198Z,0.40
2022-09-23T01:55:34.488Z,0.40
2022-09-23T01:55:52.008Z,0.20
2022-09-23T01:56:11.676Z,0.38
2022-09-23T01:56:31.597Z,0.40
2022-09-23T01:56:51.883Z,0.30
2022-09-23T01:57:10.458Z,0.40
2022-09-23T01:57:31.784Z,0.40
2022-09-23T01:57:49.284Z,0.40
2022-09-23T01:58:07.818Z,0.40
2022-09-23T01:58:27.199Z,0.40
2022-09-23T01:58:46.657Z,0.40
2022-09-23T01:59:09.231Z,0.70
2022-09-23T01:59:29.194Z,0.47
2022-09-23T01:59:48.095Z,0.38
2022-09-23T02:00:35.353Z,0.50
2022-09-23T02:00:58.863Z,0.45
2022-09-23T02:01:17.389Z,0.30
2022-09-23T02:01:36.415Z,0.45
2022-09-23T02:01:55.979Z,0.60
2022-09-23T02:02:16.499Z,0.50
2022-09-23T02:02:35.510Z,0.40
2022-09-23T02:02:53.295Z,0.30
2022-09-23T02:03:14.024Z,0.30
2022-09-23T02:03:33.409Z,0.50
2022-09-23T02:03:55.236Z,0.40
2022-09-23T02:04:17.326Z,0.32
2022-09-23T02:04:39.625Z,0.40
2022-09-23T02:04:58.501Z,0.20
2022-09-23T02:05:18.290Z,0.40
2022-09-23T02:05:37.341Z,0.50
2022-09-23T02:05:56.895Z,0.35
2022-09-23T02:06:16.053Z,0.50
2022-09-23T02:06:35.101Z,0.50
2022-09-23T02:06:56.151Z,0.40
2022-09-23T02:07:17.851Z,0.40
2022-09-23T02:07:37.521Z,0.40
2022-09-23T02:07:57.224Z,0.45
2022-09-23T02:08:16.491Z,0.20
2022-09-23T02:08:35.574Z,0.20
2022-09-23T02:08:54.530Z,0.35
2022-09-23T02:09:13.071Z,0.40
2022-09-23T02:09:31.725Z,0.30
2022-09-23T02:09:51.721Z,0.30
2022-09-23T02:10:12.565Z,0.30
2022-09-23T02:10:32.998Z,0.30
2022-09-23T02:10:53.069Z,0.30
2022-09-23T02:11:11.038Z,0.30
2022-09-23T02:11:28.140Z,0.30
2022-09-23T02:11:46.041Z,0.40
2022-09-23T02:12:05.734Z,0.50
2022-09-23T02:12:24.719Z,0.40
2022-09-23T02:12:43.265Z,0.43
2022-09-23T02:13:04.156Z,0.40
2022-09-23T02:13:24.416Z,0.40
2022-09-23T02:13:44.779Z,0.30
2022-09-23T02:14:04.773Z,0.30
2022-09-23T02:14:23.758Z,0.40
2022-09-23T02:14:42.517Z,0.60
2022-09-23T02:15:01.842Z,0.60
2022-09-23T02:15:19.512Z,0.30
2022-09-23T02:15:41.816Z,0.40
2022-09-23T02:16:02.099Z,0.40
2022-09-23T02:16:22.378Z,0.30
2022-09-23T02:16:41.319Z,0.40
2022-09-23T02:17:00.246Z,0.40
2022-09-23T02:17:20.295Z,0.40
2022-09-23T02:17:40.011Z,0.52
2022-09-23T02:18:01.047Z,0.43
2022-09-23T02:18:19.999Z,0.40
2022-09-23T02:18:41.929Z,0.40
2022-09-23T02:19:01.809Z,0.40
2022-09-23T02:19:21.340Z,0.30
2022-09-23T02:19:40.684Z,0.30
2022-09-23T02:19:58.519Z,0.20
2022-09-23T02:20:20.806Z,0.40
2022-09-23T02:20:39.577Z,0.35
2022-09-23T02:20:58.459Z,0.30
2022-09-23T02:21:15.668Z,0.30
2022-09-23T02:21:34.210Z,0.60
2022-09-23T02:21:52.877Z,0.50
2022-09-23T02:22:13.712Z,0.30
2022-09-23T02:22:35.987Z,0.40
2022-09-23T02:22:55.980Z,0.50
2022-09-23T02:23:13.773Z,0.40
2022-09-23T02:23:34.184Z,0.40
2022-09-23T02:23:53.327Z,0.50
2022-09-23T02:24:10.934Z,0.55
2022-09-23T02:24:28.695Z,0.60
2022-09-23T02:24:45.434Z,0.30
2022-09-23T02:25:03.205Z,0.35
2022-09-23T02:25:23.348Z,0.50
2022-09-23T02:25:45.045Z,0.57
2022-09-23T02:26:07.342Z,0.60
2022-09-23T02:26:28.125Z,0.35
2022-09-23T02:26:46.985Z,0.30
2022-09-23T02:27:09.665Z,0.50
2022-09-23T02:27:30.212Z,0.65
2022-09-23T02:27:51.151Z,0.52
2022-09-23T02:28:12.132Z,0.50
2022-09-23T02:28:32.841Z,0.47
2022-09-23T02:28:52.374Z,0.25
2022-09-23T02:29:14.365Z,0.30
2022-09-23T02:29:33.958Z,0.50
2022-09-23T02:29:53.983Z,0.50
2022-09-23T02:30:13.729Z,0.35
2022-09-23T02:30:31.737Z,0.30
2022-09-23T02:30:51.852Z,0.40
2022-09-23T02:31:11.927Z,0.50
2022-09-23T02:31:32.995Z,0.77
2022-09-23T02:31:56.409Z,0.60
2022-09-23T02:32:14.751Z,0.60
2022-09-23T02:32:33.674Z,0.70
2022-09-23T02:32:53.000Z,0.70
2022-09-23T02:33:15.386Z,0.47
2022-09-23T02:33:34.930Z,0.50
2022-09-23T02:33:54.673Z,0.50
2022-09-23T02:34:16.521Z,0.50
2022-09-23T02:34:39.348Z,0.47
2022-09-23T02:34:59.452Z,0.50
2022-09-23T02:35:18.779Z,0.35
2022-09-23T02:35:37.260Z,0.30
2022-09-23T02:35:55.058Z,0.43
2022-09-23T02:36:15.295Z,0.60
2022-09-23T02:36:36.764Z,0.50
2022-09-23T02:36:56.785Z,0.50
2022-09-23T02:37:23.274Z,0.60
2022-09-23T02:37:43.592Z,0.40
2022-09-23T02:38:05.532Z,0.30
2022-09-23T02:38:27.410Z,0.40
2022-09-23T02:38:46.214Z,0.32
2022-09-23T02:39:05.176Z,0.30
2022-09-23T02:39:23.574Z,0.40
2022-09-23T02:39:45.914Z,0.30
2022-09-23T02:40:07.624Z,0.40
2022-09-23T02:40:27.770Z,0.35
2022-09-23T02:40:51.012Z,0.40
2022-09-23T02:41:09.960Z,0.40
2022-09-23T02:41:32.276Z,0.40
2022-09-23T02:41:51.904Z,0.40
2022-09-23T02:42:12.646Z,0.40
2022-09-23T02:42:33.274Z,0.45
2022-09-23T02:42:57.256Z,0.47
2022-09-23T02:43:17.042Z,0.50
2022-09-23T02:43:36.056Z,0.60
2022-09-23T02:43:54.555Z,0.40
2022-09-23T02:44:12.708Z,0.25
2022-09-23T02:44:29.217Z,0.30
2022-09-23T02:44:45.715Z,0.35
2022-09-23T02:45:03.206Z,0.55
2022-09-23T02:45:19.953Z,0.50
2022-09-23T02:45:39.040Z,0.60
2022-09-23T02:45:56.115Z,0.38
2022-09-23T02:46:15.125Z,0.40
2022-09-23T02:46:31.938Z,0.50
2022-09-23T02:46:52.250Z,0.50
2022-09-23T02:47:08.874Z,0.36
2022-09-23T02:47:28.255Z,0.50
2022-09-23T02:47:45.689Z,0.55
2022-09-23T02:48:04.382Z,0.35
2022-09-23T02:48:23.821Z,0.50
2022-09-23T02:48:43.249Z,0.50
2022-09-23T02:49:00.896Z,0.40
2022-09-23T02:49:19.983Z,0.57
2022-09-23T02:49:36.601Z,0.50
2022-09-23T02:49:53.507Z,0.50
2022-09-23T02:50:11.110Z,0.40
2022-09-23T02:50:27.658Z,0.40
2022-09-23T02:50:44.676Z,0.50
2022-09-23T02:51:03.540Z,0.40
2022-09-23T02:51:20.033Z,0.50
2022-09-23T02:51:38.136Z,0.50
2022-09-23T02:51:54.936Z,0.50
2022-09-23T02:52:13.673Z,0.65
2022-09-23T02:52:30.221Z,0.50
2022-09-23T02:52:46.853Z,0.40
2022-09-23T02:53:03.524Z,0.30
2022-09-23T02:53:22.265Z,0.45
2022-09-23T02:53:40.455Z,0.50
2022-09-23T02:53:57.693Z,0.30
2022-09-23T02:54:15.752Z,0.20
2022-09-23T02:54:33.461Z,0.30
2022-09-23T02:54:50.002Z,0.30
2022-09-23T02:55:09.555Z,0.50
2022-09-23T02:55:27.091Z,0.60
2022-09-23T02:55:43.775Z,0.95
2022-09-23T02:56:00.329Z,0.80
2022-09-23T02:56:18.975Z,0.40
2022-09-23T02:56:35.483Z,0.47
2022-09-23T02:56:53.169Z,0.45
2022-09-23T02:57:11.098Z,0.43
2022-09-23T02:57:27.665Z,0.45
2022-09-23T02:57:44.757Z,0.40
2022-09-23T02:58:02.239Z,0.40
2022-09-23T02:58:18.831Z,0.50
2022-09-23T02:58:36.308Z,0.50
2022-09-23T02:58:54.175Z,0.50
2022-09-23T02:59:11.535Z,0.80
2022-09-23T02:59:28.803Z,0.88
2022-09-23T02:59:46.721Z,0.60
2022-09-23T03:00:05.222Z,0.50
2022-09-23T03:00:21.904Z,0.40
2022-09-23T03:00:43.059Z,0.38
2022-09-23T03:01:03.399Z,0.50
2022-09-23T03:01:26.301Z,0.55
2022-09-23T03:01:47.749Z,0.60
2022-09-23T03:02:14.251Z,0.50
2022-09-23T03:02:49.197Z,0.50
2022-09-23T03:03:12.517Z,0.68
2022-09-23T03:03:36.729Z,0.64
2022-09-23T03:03:56.335Z,0.40
2022-09-23T03:04:16.294Z,0.47
2022-09-23T03:04:39.223Z,0.40
2022-09-23T03:05:03.783Z,0.47
2022-09-23T03:05:24.795Z,0.60
2022-09-23T03:05:46.101Z,0.40
2022-09-23T03:06:06.208Z,0.52
2022-09-23T03:06:27.175Z,0.70
2022-09-23T03:06:50.752Z,0.73
2022-09-23T03:07:13.860Z,0.60
2022-09-23T03:07:33.429Z,0.60
2022-09-23T03:07:57.430Z,0.45
2022-09-23T03:08:25.638Z,0.60
2022-09-23T03:08:48.342Z,0.50
2022-09-23T03:09:08.633Z,0.40
2022-09-23T03:09:27.196Z,0.47
2022-09-23T03:09:47.443Z,0.63
2022-09-23T03:10:09.583Z,0.47
2022-09-23T03:10:30.068Z,0.50
2022-09-23T03:10:53.004Z,0.50
2022-09-23T03:11:11.227Z,0.55
2022-09-23T03:11:28.738Z,0.60
2022-09-23T03:11:48.587Z,0.80
2022-09-23T03:12:15.670Z,0.70
2022-09-23T03:12:36.202Z,0.77
2022-09-23T03:12:58.808Z,0.73
2022-09-23T03:13:18.521Z,0.70
2022-09-23T03:13:42.893Z,0.50
2022-09-23T03:14:07.096Z,0.50
2022-09-23T03:14:27.270Z,0.57
2022-09-23T03:14:50.949Z,0.80
2022-09-23T03:15:12.504Z,0.90
2022-09-23T03:15:35.428Z,0.52
2022-09-23T03:15:57.292Z,0.47
2022-09-23T03:16:21.697Z,0.65
2022-09-23T03:16:43.540Z,0.75
2022-09-23T03:17:03.430Z,0.60
2022-09-23T03:17:23.116Z,0.63
2022-09-23T03:17:43.619Z,0.60
2022-09-23T03:18:04.451Z,0.50
2022-09-23T03:18:23.655Z,0.73
2022-09-23T03:18:41.087Z,0.68
2022-09-23T03:19:00.791Z,0.63
2022-09-23T03:19:24.037Z,0.52
2022-09-23T03:19:44.402Z,0.55
2022-09-23T03:20:02.572Z,0.55
2022-09-23T03:20:23.495Z,0.68
2022-09-23T03:20:42.681Z,0.68
2022-09-23T03:21:03.083Z,0.45
2022-09-23T03:21:24.513Z,0.50
2022-09-23T03:21:43.079Z,0.40
2022-09-23T03:22:02.266Z,0.40
2022-09-23T03:22:21.578Z,0.50
2022-09-23T03:22:41.362Z,0.60
2022-09-23T03:23:00.822Z,0.63
2022-09-23T03:23:19.994Z,0.50
2022-09-23T03:23:37.144Z,0.60
2022-09-23T03:23:54.509Z,0.70
2022-09-23T03:24:14.333Z,0.45
2022-09-23T03:24:32.033Z,0.40
2022-09-23T03:24:53.289Z,0.60
2022-09-23T03:25:11.944Z,0.77
2022-09-23T03:25:33.156Z,0.60
2022-09-23T03:25:50.306Z,0.50
2022-09-23T03:26:08.300Z,0.57
2022-09-23T03:26:27.585Z,0.40
2022-09-23T03:26:46.202Z,0.30
2022-09-23T03:27:05.762Z,0.40
2022-09-23T03:27:24.025Z,0.40
2022-09-23T03:27:42.420Z,0.45
2022-09-23T03:28:00.812Z,0.50
2022-09-23T03:28:20.227Z,0.63
2022-09-23T03:28:38.156Z,0.55
2022-09-23T03:28:54.700Z,0.57
2022-09-23T03:29:11.677Z,0.50
2022-09-23T03:29:29.046Z,0.50
2022-09-23T03:29:47.603Z,0.50
2022-09-23T03:30:05.858Z,0.70
2022-09-23T03:30:22.483Z,0.56
2022-09-23T03:30:39.442Z,0.50
2022-09-23T03:30:56.215Z,0.63
2022-09-23T03:31:13.633Z,0.60
2022-09-23T03:31:31.079Z,0.40
2022-09-23T03:31:50.126Z,0.40
2022-09-23T03:32:08.113Z,0.60
2022-09-23T03:32:27.931Z,0.50
2022-09-23T03:32:45.690Z,0.43
2022-09-23T03:33:04.115Z,0.50
2022-09-23T03:33:25.717Z,0.40
2022-09-23T03:33:48.728Z,0.50
2022-09-23T03:34:08.607Z,0.55
2022-09-23T03:34:27.382Z,0.40
2022-09-23T03:34:44.601Z,0.40
2022-09-23T03:35:01.595Z,0.45
2022-09-23T03:35:18.303Z,0.55
2022-09-23T03:35:58.090Z,0.35
2022-09-23T03:36:35.107Z,0.34
2022-09-23T03:36:53.714Z,0.60
2022-09-23T03:37:12.801Z,0.68
2022-09-23T03:37:31.329Z,0.40
2022-09-23T03:37:51.073Z,0.38
2022-09-23T03:38:12.187Z,0.50
2022-09-23T03:38:32.920Z,0.50
2022-09-23T03:38:52.769Z,0.68
2022-09-23T03:39:12.556Z,0.45
2022-09-23T03:39:35.366Z,0.40
2022-09-23T03:39:55.154Z,0.50
2022-09-23T03:40:14.485Z,0.50
2022-09-23T03:40:33.096Z,0.60
2022-09-23T03:40:50.981Z,0.50
2022-09-23T03:41:10.218Z,0.40
2022-09-23T03:41:29.512Z,0.40
2022-09-23T03:41:50.913Z,0.70
2022-09-23T03:42:16.709Z,1.10
2022-09-23T03:42:35.049Z,0.57
2022-09-23T03:42:51.787Z,0.50
2022-09-23T03:43:08.931Z,0.60
2022-09-23T03:43:25.585Z,0.57
2022-09-23T03:43:43.198Z,0.40
2022-09-23T03:44:00.008Z,0.57
2022-09-23T03:44:17.876Z,0.80
2022-09-23T03:44:37.767Z,0.50
2022-09-23T03:44:56.784Z,0.40
2022-09-23T03:45:17.059Z,0.40
2022-09-23T03:45:34.944Z,0.60
2022-09-23T03:45:53.399Z,0.52
2022-09-23T03:46:10.173Z,0.45
2022-09-23T03:46:28.509Z,0.65
2022-09-23T03:46:49.985Z,0.50
2022-09-23T03:47:08.948Z,0.70
2022-09-23T03:47:26.582Z,0.68
2022-09-23T03:47:43.091Z,0.60
2022-09-23T03:48:00.598Z,0.47
2022-09-23T03:48:17.081Z,0.25
2022-09-23T03:48:34.683Z,0.40
2022-09-23T03:48:51.266Z,0.60
2022-09-23T03:49:10.367Z,0.70
2022-09-23T03:49:28.088Z,0.60
2022-09-23T03:49:45.646Z,0.50
2022-09-23T03:50:03.180Z,0.50
2022-09-23T03:50:20.837Z,0.40
2022-09-23T03:50:37.321Z,0.45
2022-09-23T03:50:53.824Z,0.43
2022-09-23T03:51:19.434Z,0.40
2022-09-23T03:51:36.222Z,0.63
2022-09-23T03:51:53.778Z,0.60
2022-09-23T03:52:11.038Z,0.50
2022-09-23T03:52:27.598Z,0.40
2022-09-23T03:52:44.208Z,0.68
2022-09-23T03:53:01.149Z,0.65
2022-09-23T03:53:21.111Z,0.40
2022-09-23T03:53:37.650Z,0.60
2022-09-23T03:53:54.172Z,0.57
2022-09-23T03:54:10.706Z,0.55
2022-09-23T03:54:29.648Z,0.60
2022-09-23T03:54:47.540Z,0.50
2022-09-23T03:55:04.292Z,0.57
2022-09-23T03:55:21.295Z,0.57
2022-09-23T03:55:39.378Z,0.50
2022-09-23T03:55:55.861Z,0.60
2022-09-23T03:56:12.438Z,0.60
2022-09-23T03:56:29.931Z,0.47
2022-09-23T03:56:47.600Z,0.50
2022-09-23T03:57:04.266Z,0.60
2022-09-23T03:57:21.943Z,0.50
2022-09-23T03:57:38.555Z,0.47
2022-09-23T03:57:56.802Z,0.40
2022-09-23T03:58:13.694Z,0.35
2022-09-23T03:58:30.208Z,0.38
2022-09-23T03:58:46.752Z,0.30
2022-09-23T03:59:03.311Z,0.40
2022-09-23T03:59:19.825Z,0.50
2022-09-23T03:59:37.637Z,0.80
2022-09-23T03:59:54.137Z,0.73
2022-09-23T04:00:11.788Z,0.68
2022-09-23T04:00:28.576Z,0.75
2022-09-23T04:00:45.110Z,0.50
2022-09-23T04:01:01.699Z,0.50
2022-09-23T04:01:19.254Z,0.68
2022-09-23T04:01:35.782Z,0.70
2022-09-23T04:01:52.747Z,0.40
2022-09-23T04:02:11.781Z,0.40
2022-09-23T04:02:29.313Z,0.30
2022-09-23T04:02:45.871Z,0.43
2022-09-23T04:03:02.485Z,0.50
2022-09-23T04:03:19.048Z,0.63
2022-09-23T04:03:35.564Z,0.60
2022-09-23T04:03:52.708Z,0.60
2022-09-23T04:04:10.217Z,0.57
2022-09-23T04:04:27.462Z,0.90
2022-09-23T04:04:44.295Z,1.10
2022-09-23T04:05:01.109Z,0.68
2022-09-23T04:05:18.934Z,0.63
2022-09-23T04:05:36.534Z,0.60
2022-09-23T04:05:53.041Z,0.50
2022-09-23T04:06:09.552Z,0.55
2022-09-23T04:06:26.142Z,0.68
2022-09-23T04:06:42.694Z,0.60
2022-09-23T04:07:00.309Z,0.60
2022-09-23T04:07:17.131Z,0.70
2022-09-23T04:07:33.631Z,0.88
2022-09-23T04:07:51.069Z,0.80
2022-09-23T04:08:08.589Z,0.30
2022-09-23T04:08:25.135Z,0.43
2022-09-23T04:08:42.004Z,0.40
2022-09-23T04:08:58.536Z,0.50
2022-09-23T04:09:15.078Z,0.60
2022-09-23T04:09:31.618Z,0.50
2022-09-23T04:09:49.077Z,0.50
2022-09-23T04:10:06.239Z,0.52
2022-09-23T04:10:22.898Z,0.58
2022-09-23T04:10:40.827Z,0.65
2022-09-23T04:10:59.316Z,0.80
2022-09-23T04:11:16.816Z,0.55
2022-09-23T04:11:33.314Z,0.50
2022-09-23T04:11:49.949Z,0.52
2022-09-23T04:12:06.886Z,0.55
2022-09-23T04:12:23.408Z,0.52
2022-09-23T04:12:39.878Z,0.40
2022-09-23T04:12:57.370Z,0.40
2022-09-23T04:13:13.872Z,0.40
2022-09-23T04:13:31.540Z,0.50
2022-09-23T04:13:48.035Z,0.40
2022-09-23T04:14:05.616Z,0.50
2022-09-23T04:14:22.450Z,0.57
2022-09-23T04:14:39.084Z,0.60
2022-09-23T04:14:55.635Z,0.40
2022-09-23T04:15:12.283Z,0.40
2022-09-23T04:15:28.824Z,0.45
2022-09-23T04:15:46.286Z,0.60